Time;durP1;ratioP1;P1;durP2;ratioP2;P2;SDS_P1;SDS_P2;PMS_P1;PMS_P2;Temp;Humidity;BMP_temperature;BMP_pressure;BME280_temperature;BME280_humidity;BME280_pressure;Samples;Min_cycle;Max_cycle;Signal;HPM_P1;HPM_P2
2023/06/15 00:02:05;;;;;;;16.80;9.50;;;;;;;24.59;49.03;99994.82;107841;1256;60101;-67
2023/06/15 00:04:32;;;;;;;13.80;9.20;;;;;;;24.55;49.08;99994.42;107875;1257;59529;-67
2023/06/15 00:06:58;;;;;;;11.00;8.00;;;;;;;24.39;49.52;99996.70;107829;1262;59698;-67
2023/06/15 00:09:26;;;;;;;20.10;9.70;;;;;;;24.38;49.59;100000.23;107842;1257;70156;-67
2023/06/15 00:11:57;;;;;;;;;;;;;;;23.90;50.68;100007.16;107860;1262;71507;-67
2023/06/15 00:14:26;;;;;;;13.10;9.50;;;;;;;23.60;51.43;100010.06;107911;1256;61986;-65
2023/06/15 00:16:52;;;;;;;16.90;10.20;;;;;;;23.82;51.14;100009.11;107895;1256;60237;-67
2023/06/15 00:19:19;;;;;;;16.50;8.90;;;;;;;24.03;50.72;100003.73;107859;1257;59654;-65
2023/06/15 00:21:48;;;;;;;14.40;10.00;;;;;;;24.29;50.16;100002.30;107685;1258;69262;-67
2023/06/15 00:24:17;;;;;;;19.80;10.60;;;;;;;23.87;51.15;100005.98;107899;1256;73298;-66
2023/06/15 00:26:44;;;;;;;16.60;10.10;;;;;;;23.89;50.96;100005.27;107962;1256;61665;-66
2023/06/15 00:29:11;;;;;;;15.50;10.00;;;;;;;23.87;50.84;100003.82;107879;1261;59559;-66
2023/06/15 00:31:40;;;;;;;14.40;9.70;;;;;;;23.90;50.89;100004.83;107907;1262;72039;-68
2023/06/15 00:34:11;;;;;;;27.10;9.70;;;;;;;23.93;50.66;99998.95;107957;1256;70985;-65
2023/06/15 00:36:38;;;;;;;15.70;9.90;;;;;;;24.05;50.47;100001.41;107944;1261;72599;-66
2023/06/15 00:39:05;;;;;;;20.60;9.90;;;;;;;24.09;50.14;100000.46;107861;1257;60518;-66
2023/06/15 00:41:55;;;;;;;18.40;10.00;;;;;;;24.00;50.41;99998.61;107678;1256;60143;-66
2023/06/15 00:45:07;;;;;;;15.30;9.40;;;;;;;23.92;50.64;99998.30;107677;1256;73057;-66
2023/06/15 00:47:39;;;;;;;17.40;9.80;;;;;;;23.80;50.75;99998.90;107626;1263;70776;-65
2023/06/15 00:50:11;;;;;;;14.20;11.10;;;;;;;23.54;51.55;99999.05;107922;1261;72437;-66
2023/06/15 00:53:45;;;;;;;15.50;10.80;;;;;;;23.77;51.06;99996.17;107733;1257;60565;-65
2023/06/15 00:56:13;;;;;;;14.40;9.90;;;;;;;23.49;51.68;99994.45;107911;1256;60039;-66
2023/06/15 00:58:41;;;;;;;19.00;9.50;;;;;;;23.60;51.66;99993.11;107526;1264;72531;-65
2023/06/15 01:01:08;;;;;;;17.10;9.80;;;;;;;23.70;51.65;99988.08;107627;1256;70243;-66
2023/06/15 01:03:40;;;;;;;13.20;8.20;;;;;;;23.98;51.01;99988.60;107684;1256;73305;-69
2023/06/15 01:06:15;;;;;;;21.70;10.90;;;;;;;23.99;50.99;99991.01;107633;1263;61787;-66
2023/06/15 01:08:47;;;;;;;16.20;10.10;;;;;;;24.00;51.26;99991.08;107876;1260;60117;-65
2023/06/15 01:11:16;;;;;;;15.80;10.10;;;;;;;24.07;51.17;99990.85;107604;1257;73009;-67
2023/06/15 01:13:45;;;;;;;17.80;11.00;;;;;;;23.95;51.70;99996.41;107454;1257;70758;-67
2023/06/15 01:16:19;;;;;;;14.90;10.50;;;;;;;24.10;51.56;99992.64;107592;1258;72681;-67
2023/06/15 01:18:50;;;;;;;12.80;9.10;;;;;;;24.20;51.46;99992.23;107729;1260;61738;-66
2023/06/15 01:21:17;;;;;;;18.00;10.00;;;;;;;24.25;51.17;99994.79;107619;1256;60008;-64
2023/06/15 01:24:13;;;;;;;11.60;8.40;;;;;;;24.35;51.07;99993.67;107607;1257;73246;-66
2023/06/15 01:26:41;;;;;;;22.70;9.70;;;;;;;24.70;50.21;99993.36;107796;1257;70858;-67
2023/06/15 01:29:08;;;;;;;16.10;10.40;;;;;;;24.60;50.56;99992.05;107867;1258;72737;-66
2023/06/15 01:31:35;;;;;;;23.00;10.90;;;;;;;24.61;50.58;99992.61;107527;1263;60921;-66
2023/06/15 01:34:01;;;;;;;21.40;10.80;;;;;;;24.61;50.79;99992.80;107550;1265;59999;-67
2023/06/15 01:36:32;;;;;;;19.80;11.20;;;;;;;24.50;51.37;99992.96;107906;1260;73684;-65
2023/06/15 01:39:05;;;;;;;16.50;10.50;;;;;;;24.59;51.21;99997.33;107898;1257;70882;-67
2023/06/15 01:41:33;;;;;;;20.20;11.50;;;;;;;24.80;50.84;99993.81;107443;1256;71508;-67
2023/06/15 01:44:03;;;;;;;13.60;9.50;;;;;;;24.83;50.73;99992.73;107699;1257;62196;-66
2023/06/15 01:46:34;;;;;;;19.60;10.40;;;;;;;24.78;50.92;99993.93;107875;1257;60264;-67
2023/06/15 01:49:01;;;;;;;19.20;10.90;;;;;;;24.92;50.73;99993.65;107934;1257;73664;-65
2023/06/15 01:51:28;;;;;;;17.60;10.60;;;;;;;25.01;50.66;99993.33;107925;1257;70786;-66
2023/06/15 01:53:57;;;;;;;17.30;11.10;;;;;;;25.02;50.70;99988.05;107552;1257;59757;-67
2023/06/15 01:56:27;;;;;;;16.60;10.10;;;;;;;24.85;51.35;99989.18;107904;1262;60361;-67
2023/06/15 01:58:58;;;;;;;15.50;12.10;;;;;;;24.74;51.68;99981.13;107874;1261;59609;-67
2023/06/15 02:01:28;;;;;;;17.30;11.40;;;;;;;24.76;51.80;99983.05;107581;1257;73585;-68
2023/06/15 02:03:55;;;;;;;17.80;10.70;;;;;;;24.92;51.58;99974.48;107780;1260;69170;-66
2023/06/15 02:06:22;;;;;;;16.10;11.40;;;;;;;25.04;51.37;99976.13;107591;1263;73179;-65
2023/06/15 02:08:50;;;;;;;25.70;12.50;;;;;;;25.15;51.20;99977.55;107913;1261;62395;-65
2023/06/15 02:11:18;;;;;;;18.90;11.60;;;;;;;25.20;51.12;99973.00;107893;1258;61495;-66
2023/06/15 02:13:47;;;;;;;15.80;10.70;;;;;;;25.20;51.14;99977.04;107834;1262;71785;-66
2023/06/15 02:16:15;;;;;;;23.50;11.40;;;;;;;25.19;51.31;99980.95;107857;1257;69418;-66
2023/06/15 02:18:44;;;;;;;16.60;10.50;;;;;;;25.40;50.84;99983.54;107848;1258;73087;-66
2023/06/15 02:21:12;;;;;;;18.00;11.20;;;;;;;25.50;50.54;99980.73;107632;1257;62091;-66
2023/06/15 02:23:38;;;;;;;17.10;10.80;;;;;;;25.63;50.22;99980.23;107861;1258;59989;-66
2023/06/15 02:26:09;;;;;;;18.50;11.10;;;;;;;25.71;50.11;99979.77;107845;1258;73028;-65
2023/06/15 02:28:36;;;;;;;19.50;11.30;;;;;;;25.79;50.03;99980.22;107615;1262;70672;-67
2023/06/15 02:31:03;;;;;;;15.90;10.50;;;;;;;25.76;50.15;99978.34;107578;1258;72632;-67
2023/06/15 02:33:31;;;;;;;16.70;11.00;;;;;;;25.83;50.05;99975.31;107935;1261;62085;-67
2023/06/15 02:36:01;;;;;;;20.80;11.60;;;;;;;25.88;50.04;99977.20;107854;1259;60082;-68
2023/06/15 02:38:37;;;;;;;18.40;10.60;;;;;;;25.88;49.99;99976.27;107847;1257;73515;-66
2023/06/15 02:41:03;;;;;;;16.80;10.50;;;;;;;25.67;50.41;99978.92;107826;1257;71166;-67
2023/06/15 02:43:30;;;;;;;18.80;10.70;;;;;;;25.66;50.42;99974.86;107840;1257;72774;-67
2023/06/15 02:45:56;;;;;;;22.70;11.90;;;;;;;25.68;50.53;99972.48;107762;1259;59643;-68
2023/06/15 02:48:23;;;;;;;15.40;10.20;;;;;;;25.76;50.39;99964.91;107780;1261;59139;-68
2023/06/15 02:50:50;;;;;;;19.10;10.20;;;;;;;25.68;50.66;99968.01;107788;1261;72490;-66
2023/06/15 02:53:21;;;;;;;;;;;;;;;25.73;50.72;99969.86;107710;1258;68947;-66
2023/06/15 02:55:51;;;;;;;18.00;10.10;;;;;;;25.81;50.58;99967.25;107877;1257;72575;-68
2023/06/15 02:58:24;;;;;;;19.00;10.00;;;;;;;25.92;50.45;99968.31;107980;1257;61967;-66
2023/06/15 03:01:16;;;;;;;22.20;10.00;;;;;;;26.05;50.27;99967.27;107607;1257;60768;-66
2023/06/15 03:03:51;;;;;;;17.40;10.60;;;;;;;26.15;50.02;99969.25;107629;1258;71825;-66
2023/06/15 03:06:18;;;;;;;18.50;9.90;;;;;;;26.23;49.97;99968.86;107664;1257;70207;-67
2023/06/15 03:08:46;;;;;;;16.10;9.80;;;;;;;26.36;49.71;99963.50;107808;1257;72467;-67
2023/06/15 03:11:29;;;;;;;;;;;;;;;26.38;49.58;99965.67;107584;1258;61892;-68
2023/06/15 03:14:50;;;;;;;19.20;9.30;;;;;;;26.46;49.50;99965.33;107682;1257;60010;-69
2023/06/15 03:27:17;;;;;;;13.40;8.80;;;;;;;26.72;48.75;99969.42;107643;1257;60523;-66
2023/06/15 03:29:49;;;;;;;13.40;8.90;;;;;;;26.66;48.93;99968.97;107709;1257;60337;-67
2023/06/15 03:32:16;;;;;;;15.80;9.10;;;;;;;26.68;48.93;99967.04;107653;1257;72016;-67
2023/06/15 03:34:44;;;;;;;18.70;9.10;;;;;;;26.84;48.71;99962.55;107648;1258;70426;-67
2023/06/15 03:37:16;;;;;;;17.60;9.10;;;;;;;26.92;48.59;99960.88;107636;1262;72603;-65
2023/06/15 03:39:43;;;;;;;15.50;8.40;;;;;;;27.15;48.16;99961.70;107853;1257;61903;-67
2023/06/15 03:42:13;;;;;;;13.50;9.00;;;;;;;27.15;48.18;99961.89;107612;1257;60322;-66
2023/06/15 03:44:42;;;;;;;17.10;8.80;;;;;;;27.35;47.63;99963.64;107868;1257;73775;-67
2023/06/15 03:47:11;;;;;;;13.40;7.80;;;;;;;27.55;47.25;99965.95;107631;1257;70009;-67
2023/06/15 03:49:42;;;;;;;15.40;8.30;;;;;;;27.80;46.94;99961.06;107624;1257;72515;-66
2023/06/15 03:52:09;;;;;;;15.00;8.30;;;;;;;27.93;46.81;99962.30;107567;1257;62028;-67
2023/06/15 03:54:37;;;;;;;11.30;7.80;;;;;;;28.05;46.71;99958.98;107615;1258;60371;-66
2023/06/15 03:57:05;;;;;;;12.10;7.60;;;;;;;28.37;46.13;99954.77;107849;1258;73792;-65
2023/06/15 03:59:32;;;;;;;15.40;7.20;;;;;;;28.59;45.26;99952.38;107672;1258;70497;-67
2023/06/15 04:02:02;;;;;;;17.70;7.50;;;;;;;28.67;45.00;99955.98;107840;1257;72527;-67
2023/06/15 04:04:32;;;;;;;12.30;6.60;;;;;;;28.99;44.34;99954.97;107633;1258;62106;-68
2023/06/15 04:07:03;;;;;;;14.20;6.70;;;;;;;29.33;43.54;99952.48;107646;1262;60255;-68
2023/06/15 04:09:31;;;;;;;12.80;6.40;;;;;;;29.68;42.65;99952.06;107638;1257;72711;-66
2023/06/15 04:12:00;;;;;;;15.00;6.20;;;;;;;29.97;42.04;99952.67;107636;1257;70702;-69
2023/06/15 04:14:27;;;;;;;13.40;5.80;;;;;;;30.15;41.74;99956.67;107632;1257;73221;-66
2023/06/15 04:16:56;;;;;;;13.00;5.80;;;;;;;30.44;41.02;99956.20;107596;1257;61901;-67
2023/06/15 04:19:25;;;;;;;15.50;6.10;;;;;;;30.78;40.38;99955.60;107674;1260;60839;-68
2023/06/15 04:21:55;;;;;;;12.00;6.00;;;;;;;30.96;39.66;99954.06;107553;1260;74364;-68
2023/06/15 04:24:26;;;;;;;11.30;5.90;;;;;;;31.28;39.16;99955.65;107471;1260;70389;-67
2023/06/15 04:26:57;;;;;;;9.50;4.80;;;;;;;31.65;37.87;99957.91;107545;1259;72528;-67
2023/06/15 04:29:30;;;;;;;18.50;5.20;;;;;;;31.87;37.14;99955.38;107580;1259;63032;-68
2023/06/15 04:31:58;;;;;;;9.80;5.70;;;;;;;31.99;36.96;99956.90;107550;1259;60451;-68
2023/06/15 04:34:31;;;;;;;11.70;5.10;;;;;;;32.21;36.61;99951.19;107565;1263;73993;-66
2023/06/15 04:37:01;;;;;;;11.60;5.10;;;;;;;32.69;35.56;99953.33;107617;1257;68526;-67
2023/06/15 04:39:29;;;;;;;11.30;4.90;;;;;;;33.16;34.90;99951.98;107625;1257;72634;-68
2023/06/15 04:42:02;;;;;;;14.30;4.90;;;;;;;33.17;34.85;99952.89;107646;1257;60681;-66
2023/06/15 04:44:29;;;;;;;17.50;5.50;;;;;;;33.46;34.37;99950.25;107737;1257;60309;-68
2023/06/15 04:46:57;;;;;;;21.70;5.30;;;;;;;33.80;33.48;99950.45;107613;1262;72602;-68
2023/06/15 04:49:26;;;;;;;74.30;10.80;;;;;;;34.04;32.82;99949.52;107633;1257;60297;-69
2023/06/15 04:51:55;;;;;;;12.70;4.30;;;;;;;34.34;32.35;99952.01;107841;1260;72816;-67
2023/06/15 04:54:23;;;;;;;9.10;4.50;;;;;;;34.50;31.89;99953.11;107647;1257;60352;-66
2023/06/15 04:56:51;;;;;;;18.00;4.70;;;;;;;34.64;31.93;99954.37;107878;1257;60329;-68
2023/06/15 04:59:20;;;;;;;11.90;4.70;;;;;;;34.79;31.77;99952.27;107852;1258;65345;-66
2023/06/15 05:01:47;;;;;;;11.10;4.60;;;;;;;35.15;30.96;99953.80;107858;1257;61499;-67
2023/06/15 05:04:40;;;;;;;14.70;4.60;;;;;;;35.45;30.52;99954.80;107813;1257;64084;-65
2023/06/15 05:07:12;;;;;;;10.10;4.40;;;;;;;35.57;29.89;99955.08;107872;1257;60303;-67
2023/06/15 05:09:46;;;;;;;9.70;3.90;;;;;;;35.65;29.72;99952.75;107862;1257;60447;-68
2023/06/15 05:12:24;;;;;;;7.90;3.90;;;;;;;35.87;29.14;99954.34;107878;1257;65261;-67
2023/06/15 05:14:53;;;;;;;7.10;4.00;;;;;;;35.99;28.43;99953.40;107692;1263;61768;-66
2023/06/15 05:17:21;;;;;;;13.00;4.30;;;;;;;36.17;28.47;99952.45;107872;1257;63964;-68
2023/06/15 05:19:49;;;;;;;17.00;4.60;;;;;;;36.47;28.18;99953.56;107684;1257;60464;-67
2023/06/15 05:22:16;;;;;;;9.20;4.00;;;;;;;36.58;28.00;99953.15;107699;1257;60438;-68
2023/06/15 05:24:45;;;;;;;14.80;4.60;;;;;;;36.73;27.57;99958.31;107650;1257;65233;-68
2023/06/15 05:27:12;;;;;;;10.60;4.70;;;;;;;36.93;27.13;99955.19;107707;1257;61507;-68
2023/06/15 05:29:42;;;;;;;19.90;5.00;;;;;;;36.80;27.51;99955.69;107841;1257;65218;-67
2023/06/15 05:32:13;;;;;;;14.00;4.70;;;;;;;36.59;27.86;99959.77;107815;1257;59172;-68
2023/06/15 05:34:40;;;;;;;14.30;5.20;;;;;;;36.62;28.00;99956.52;107618;1263;60410;-67
2023/06/15 05:37:09;;;;;;;11.80;4.60;;;;;;;36.72;27.91;99958.83;107806;1257;63901;-67
2023/06/15 05:39:40;;;;;;;10.50;4.60;;;;;;;36.91;27.74;99959.70;107550;1257;61693;-69
2023/06/15 05:42:07;;;;;;;7.20;4.60;;;;;;;37.00;27.39;99959.63;107579;1257;63751;-68
2023/06/15 05:44:36;;;;;;;14.40;4.60;;;;;;;37.31;26.96;99960.76;107673;1257;60379;-69
2023/06/15 05:47:05;;;;;;;12.00;4.50;;;;;;;37.60;27.08;99965.98;107713;1257;60349;-67
2023/06/15 05:49:34;;;;;;;21.90;4.40;;;;;;;37.74;26.60;99967.09;107544;1264;65540;-68
2023/06/15 05:59:55;;;;;;;9.00;3.70;;;;;;;38.29;25.49;99969.27;107556;1257;60550;-68
2023/06/15 06:02:25;;;;;;;8.60;4.20;;;;;;;38.34;25.32;99972.17;107562;1257;59771;-69
2023/06/15 06:04:53;;;;;;;9.70;4.20;;;;;;;38.70;25.11;99970.15;107611;1260;63833;-68
2023/06/15 06:07:21;;;;;;;7.10;3.80;;;;;;;38.86;24.70;99971.34;107553;1259;61510;-68
2023/06/15 06:09:50;;;;;;;11.70;4.00;;;;;;;38.67;24.64;99971.86;107631;1258;64562;-68
2023/06/15 06:12:17;;;;;;;17.20;4.90;;;;;;;38.68;24.62;99971.11;107684;1257;60368;-66
2023/06/15 06:14:45;;;;;;;7.80;4.00;;;;;;;38.97;24.46;99973.71;107705;1258;60473;-68
2023/06/15 06:17:15;;;;;;;10.30;3.90;;;;;;;39.28;24.03;99975.85;107555;1257;64020;-69
2023/06/15 06:20:04;;;;;;;8.50;4.10;;;;;;;39.65;23.66;99977.95;107801;1263;61561;-68
2023/06/15 06:22:34;;;;;;;9.10;3.70;;;;;;;39.78;23.35;99975.29;107652;1257;63940;-67
2023/06/15 06:25:08;;;;;;;9.30;3.70;;;;;;;39.83;23.05;99976.92;107755;1258;60338;-70
2023/06/15 06:27:35;;;;;;;6.30;3.30;;;;;;;40.24;22.79;99980.08;107597;1257;60560;-67
2023/06/15 06:30:03;;;;;;;8.90;3.70;;;;;;;40.57;22.21;99981.43;107731;1257;65061;-68
2023/06/15 06:32:31;;;;;;;7.90;3.70;;;;;;;40.71;21.96;99977.30;107775;1257;61786;-68
2023/06/15 06:34:57;;;;;;;7.80;3.40;;;;;;;40.75;22.21;99977.73;107759;1257;63884;-68
2023/06/15 06:37:25;;;;;;;12.90;4.00;;;;;;;40.74;22.05;99978.98;107775;1257;60440;-69
2023/06/15 06:39:59;;;;;;;10.20;3.50;;;;;;;40.82;21.66;99977.38;107784;1259;59287;-68
2023/06/15 06:42:26;;;;;;;10.00;3.40;;;;;;;40.71;21.90;99975.26;107781;1257;65201;-68
2023/06/15 06:44:53;;;;;;;9.60;3.40;;;;;;;40.71;21.61;99974.55;107728;1257;60499;-69
2023/06/15 06:47:22;;;;;;;12.40;3.60;;;;;;;40.36;21.79;99970.30;107777;1257;64093;-70
2023/06/15 06:49:51;;;;;;;8.00;3.10;;;;;;;40.28;21.88;99968.88;107727;1257;60446;-67
2023/06/15 06:52:18;;;;;;;7.30;3.20;;;;;;;39.81;22.21;99961.54;107749;1257;59270;-69
2023/06/15 06:54:45;;;;;;;11.70;3.60;;;;;;;39.62;22.47;99961.15;107735;1258;65050;-68
2023/06/15 06:57:14;;;;;;;10.20;3.70;;;;;;;39.90;22.15;99957.71;107750;1257;61634;-69
2023/06/15 06:59:43;;;;;;;20.00;3.80;;;;;;;40.15;22.22;99959.27;107747;1257;64147;-69
2023/06/15 07:02:14;;;;;;;14.50;3.80;;;;;;;40.52;22.06;99957.69;107772;1258;60610;-69
2023/06/15 07:04:41;;;;;;;20.30;3.80;;;;;;;40.72;21.74;99958.87;107725;1258;59975;-68
2023/06/15 07:07:10;;;;;;;8.70;3.50;;;;;;;40.90;21.42;99959.27;107692;1257;65459;-69
2023/06/15 07:09:39;;;;;;;10.90;3.20;;;;;;;40.98;21.59;99965.48;107684;1257;61699;-69
2023/06/15 07:12:09;;;;;;;19.20;3.90;;;;;;;41.02;21.33;99963.20;107674;1257;63973;-69
2023/06/15 07:14:36;;;;;;;10.20;3.30;;;;;;;41.12;21.14;99961.95;107730;1257;60597;-70
2023/06/15 07:17:03;;;;;;;7.90;3.00;;;;;;;41.26;20.91;99958.63;107719;1258;60400;-68
2023/06/15 07:19:29;;;;;;;10.90;3.30;;;;;;;41.22;20.94;99958.70;107749;1257;65196;-69
2023/06/15 07:22:02;;;;;;;9.90;3.30;;;;;;;41.14;21.30;99963.33;107733;1257;63328;-70
2023/06/15 07:24:30;;;;;;;6.50;2.80;;;;;;;40.62;20.79;99960.08;107750;1257;73797;-69
2023/06/15 07:26:57;;;;;;;9.50;2.90;;;;;;;40.27;20.66;99961.85;107760;1258;60313;-69
2023/06/15 07:29:26;;;;;;;12.20;3.30;;;;;;;39.94;20.98;99960.05;107782;1257;60509;-69
2023/06/15 07:31:55;;;;;;;10.40;3.50;;;;;;;39.78;21.43;99962.50;107776;1257;63722;-69
2023/06/15 07:34:23;;;;;;;6.80;3.10;;;;;;;39.93;21.40;99965.98;107753;1258;61660;-69
2023/06/15 07:36:51;;;;;;;12.20;3.20;;;;;;;40.26;21.39;99963.29;107766;1257;64982;-69
2023/06/15 07:39:19;;;;;;;9.20;3.40;;;;;;;40.72;21.20;99964.77;107779;1257;60325;-69
2023/06/15 07:41:46;;;;;;;10.80;2.80;;;;;;;41.01;20.84;99965.18;107812;1257;60412;-71
2023/06/15 07:44:18;;;;;;;10.50;3.30;;;;;;;41.01;20.46;99968.60;107832;1257;65219;-67
2023/06/15 07:46:44;;;;;;;13.00;3.20;;;;;;;40.51;20.84;99965.36;107898;1257;61751;-69
2023/06/15 07:49:11;;;;;;;6.70;2.80;;;;;;;40.06;20.87;99966.98;107812;1257;60273;-69
2023/06/15 07:51:37;;;;;;;7.80;2.80;;;;;;;39.66;21.04;99956.69;107812;1257;60486;-69
2023/06/15 07:54:17;;;;;;;8.80;3.10;;;;;;;39.74;21.47;99957.48;107816;1256;60374;-70
2023/06/15 07:56:45;;;;;;;10.20;3.00;;;;;;;40.20;21.44;99959.99;107773;1257;64961;-70
2023/06/15 07:59:12;;;;;;;9.40;3.30;;;;;;;40.65;20.93;99956.91;107822;1256;61692;-68
2023/06/15 08:01:39;;;;;;;9.50;2.90;;;;;;;41.16;20.50;99956.00;107832;1256;63882;-69
2023/06/15 08:04:06;;;;;;;9.20;2.90;;;;;;;41.57;20.19;99955.23;107877;1257;60293;-67
2023/06/15 08:06:33;;;;;;;15.90;2.90;;;;;;;41.77;19.67;99958.13;107847;1258;60384;-69
2023/06/15 08:08:59;;;;;;;11.30;2.90;;;;;;;41.39;19.49;99960.49;107830;1256;63970;-70
2023/06/15 08:11:28;;;;;;;12.30;2.60;;;;;;;40.60;20.32;99963.74;107805;1257;61641;-67
2023/06/15 08:13:59;;;;;;;13.40;3.10;;;;;;;40.07;20.62;99967.04;107563;1257;64110;-69
2023/06/15 08:16:29;;;;;;;7.90;2.80;;;;;;;39.82;20.92;99967.47;107763;1257;60433;-67
2023/06/15 08:18:56;;;;;;;11.10;3.30;;;;;;;39.67;21.42;99964.59;107767;1258;60467;-68
2023/06/15 08:21:23;;;;;;;10.40;3.00;;;;;;;39.94;20.83;99960.36;107599;1262;65247;-69
2023/06/15 08:23:49;;;;;;;7.10;3.10;;;;;;;39.95;20.49;99962.21;107786;1258;61530;-69
2023/06/15 08:26:24;;;;;;;9.40;2.70;;;;;;;39.61;20.74;99966.05;107723;1257;64022;-68
2023/06/15 08:28:50;;;;;;;14.70;3.20;;;;;;;39.62;20.77;99965.45;107824;1257;60371;-69
2023/06/15 08:31:21;;;;;;;9.60;3.40;;;;;;;39.66;20.83;99964.63;107752;1258;60489;-69
2023/06/15 08:33:48;;;;;;;11.10;2.80;;;;;;;39.74;21.12;99965.70;107720;1257;65115;-70
2023/06/15 08:36:15;;;;;;;12.70;3.40;;;;;;;39.80;20.99;99969.04;107734;1257;61664;-69
2023/06/15 08:38:42;;;;;;;13.20;3.30;;;;;;;39.79;21.20;99970.68;107697;1257;64123;-69
2023/06/15 08:41:09;;;;;;;13.70;2.90;;;;;;;39.68;21.20;99967.90;107670;1257;60342;-69
2023/06/15 08:43:37;;;;;;;9.00;2.80;;;;;;;39.64;21.19;99972.92;107712;1257;60470;-69
2023/06/15 08:46:04;;;;;;;11.80;3.30;;;;;;;39.46;21.36;99972.46;107509;1263;65133;-69
2023/06/15 08:48:34;;;;;;;12.00;3.40;;;;;;;39.41;21.55;99969.44;107696;1257;62814;-69
2023/06/15 08:51:00;;;;;;;9.90;3.30;;;;;;;39.40;21.79;99968.37;107545;1257;64192;-70
2023/06/15 08:53:27;;;;;;;11.70;3.50;;;;;;;39.29;21.82;99967.65;107537;1257;60546;-69
2023/06/15 08:55:56;;;;;;;8.40;3.20;;;;;;;39.11;21.79;99966.27;107636;1257;60288;-71
2023/06/15 08:58:25;;;;;;;11.20;3.30;;;;;;;39.05;22.26;99963.49;107808;1257;65645;-68
2023/06/15 09:01:01;;;;;;;13.60;4.00;;;;;;;38.97;22.37;99963.75;107772;1257;62100;-68
2023/06/15 09:03:33;;;;;;;11.00;3.50;;;;;;;39.03;22.62;99960.86;107729;1257;64144;-70
2023/06/15 09:06:01;;;;;;;10.50;3.60;;;;;;;38.97;22.73;99966.05;107549;1257;60452;-71
2023/06/15 09:08:31;;;;;;;11.60;3.30;;;;;;;39.08;22.83;99967.25;107566;1257;59587;-70
2023/06/15 09:11:10;;;;;;;11.30;3.50;;;;;;;39.52;22.50;99964.29;107675;1257;64947;-72
2023/06/15 09:13:36;;;;;;;7.70;3.20;;;;;;;39.80;22.40;99963.02;107746;1257;61712;-71
2023/06/15 09:16:07;;;;;;;9.80;3.20;;;;;;;39.79;22.26;99964.89;107779;1257;64144;-72
2023/06/15 09:18:51;;;;;;;13.10;3.40;;;;;;;39.74;21.64;99966.73;107811;1257;60207;-70
2023/06/15 09:21:20;;;;;;;13.60;4.10;;;;;;;39.64;21.96;99964.54;107757;1257;60461;-71
2023/06/15 09:23:47;;;;;;;11.00;4.20;;;;;;;39.61;22.29;99962.13;107744;1257;66290;-68
2023/06/15 09:26:25;;;;;;;18.70;4.20;;;;;;;39.69;22.31;99966.09;107728;1257;61875;-70
2023/06/15 09:28:56;;;;;;;14.60;4.10;;;;;;;39.82;22.09;99965.22;107653;1257;64305;-69
2023/06/15 09:31:35;;;;;;;7.80;3.60;;;;;;;39.41;22.42;99970.40;107758;1257;60316;-70
2023/06/15 09:34:13;;;;;;;12.70;3.30;;;;;;;39.14;22.83;99966.58;107773;1257;60531;-69
2023/06/15 09:36:48;;;;;;;9.20;3.70;;;;;;;39.06;22.82;99966.39;107759;1257;65257;-69
2023/06/15 09:39:22;;;;;;;14.90;3.50;;;;;;;39.23;22.91;99967.73;107644;1259;60506;-70
2023/06/15 09:42:01;;;;;;;13.50;3.60;;;;;;;39.18;22.83;99969.52;107556;1260;63888;-69
2023/06/15 09:44:28;;;;;;;9.60;3.40;;;;;;;38.99;22.67;99970.77;107569;1259;60379;-68
2023/06/15 09:47:01;;;;;;;12.30;3.50;;;;;;;38.42;23.15;99971.54;107628;1259;59191;-70
2023/06/15 09:49:31;;;;;;;16.00;3.50;;;;;;;38.34;23.17;99973.98;107677;1259;65187;-69
2023/06/15 09:52:00;;;;;;;6.60;2.80;;;;;;;38.50;23.08;99975.10;107571;1259;60453;-68
2023/06/15 09:54:31;;;;;;;8.40;2.90;;;;;;;38.62;23.08;99975.99;107602;1259;64099;-69
2023/06/15 09:57:01;;;;;;;10.70;3.80;;;;;;;38.81;23.04;99973.55;107615;1258;59640;-68
2023/06/15 09:59:30;;;;;;;9.40;2.80;;;;;;;38.75;22.88;99973.00;107643;1259;60403;-69
2023/06/15 10:02:00;;;;;;;9.40;3.10;;;;;;;38.78;22.71;99976.42;107608;1259;65647;-68
2023/06/15 10:04:32;;;;;;;9.20;3.10;;;;;;;38.87;22.67;99976.88;107629;1260;61946;-69
2023/06/15 10:07:03;;;;;;;6.60;3.10;;;;;;;39.20;22.75;99974.88;107602;1259;63865;-69
2023/06/15 10:09:40;;;;;;;10.80;3.40;;;;;;;39.63;22.31;99976.27;107491;1259;60430;-68
2023/06/15 10:12:21;;;;;;;7.90;3.20;;;;;;;40.00;22.14;99975.16;107523;1260;60391;-69
2023/06/15 10:15:04;;;;;;;8.80;3.80;;;;;;;40.16;21.90;99973.45;107725;1258;65208;-69
2023/06/15 10:17:32;;;;;;;7.40;3.10;;;;;;;40.33;21.57;99975.52;107551;1257;62162;-68
2023/06/15 10:20:17;;;;;;;8.80;3.20;;;;;;;40.23;21.71;99974.83;107741;1259;64071;-69
2023/06/15 10:22:59;;;;;;;9.10;3.10;;;;;;;40.26;21.63;99974.64;107783;1258;60468;-68
2023/06/15 10:25:30;;;;;;;7.30;3.00;;;;;;;40.17;21.81;99975.41;107772;1258;60410;-69
2023/06/15 10:28:09;;;;;;;13.50;3.50;;;;;;;40.25;21.51;99976.84;107642;1259;66227;-69
2023/06/15 10:31:00;;;;;;;11.40;3.30;;;;;;;40.29;21.32;99972.20;107718;1258;61686;-69
2023/06/15 10:33:42;;;;;;;10.40;2.70;;;;;;;39.64;21.38;99973.02;107752;1258;63873;-70
2023/06/15 10:36:36;;;;;;;10.50;2.90;;;;;;;39.38;21.28;99972.43;107517;1259;60405;-67
2023/06/15 10:39:13;;;;;;;;;;;;;;;39.16;21.38;99967.48;107677;1256;59030;-69
2023/06/15 10:41:45;;;;;;;10.20;3.40;;;;;;;39.14;21.48;99967.17;107824;1256;63955;-69
2023/06/15 10:44:15;;;;;;;10.50;2.90;;;;;;;39.31;21.23;99966.60;107810;1256;61794;-68
2023/06/15 10:46:42;;;;;;;6.30;2.80;;;;;;;39.38;20.72;99964.41;107754;1257;63864;-70
2023/06/15 10:49:10;;;;;;;9.30;2.90;;;;;;;39.62;20.56;99962.33;107803;1256;59902;-68
2023/06/15 10:51:52;;;;;;;7.60;3.10;;;;;;;40.04;20.56;99960.95;107715;1256;59643;-69
2023/06/15 10:54:26;;;;;;;9.30;3.80;;;;;;;40.37;20.69;99962.59;107867;1260;64995;-69
2023/06/15 10:56:55;;;;;;;11.70;4.60;;;;;;;40.57;20.99;99955.92;107915;1256;62897;-70
2023/06/15 10:59:53;;;;;;;10.00;3.50;;;;;;;40.53;21.66;99957.60;108049;1257;63887;-71
2023/06/15 11:02:31;;;;;;;9.10;3.80;;;;;;;40.19;21.71;99960.32;108035;1256;59267;-71
2023/06/15 11:05:01;;;;;;;12.20;3.70;;;;;;;40.07;21.89;99958.23;107987;1256;59483;-70
2023/06/15 11:07:41;;;;;;;10.80;3.60;;;;;;;40.60;22.11;99959.33;107963;1256;65348;-68
2023/06/15 11:10:21;;;;;;;8.50;3.60;;;;;;;41.30;21.50;99952.45;107915;1256;61743;-70
2023/06/15 11:12:52;;;;;;;15.40;3.60;;;;;;;41.84;21.06;99956.91;107748;1256;63910;-70
2023/06/15 11:15:21;;;;;;;13.90;3.90;;;;;;;41.94;20.88;99957.35;107822;1256;60700;-69
2023/06/15 11:18:03;;;;;;;13.50;3.50;;;;;;;41.56;20.98;99953.05;107777;1256;60325;-68
2023/06/15 11:20:58;;;;;;;10.30;4.10;;;;;;;41.32;21.33;99951.33;107862;1256;65275;-66
2023/06/15 11:23:29;;;;;;;11.20;4.20;;;;;;;41.45;21.50;99951.93;107848;1256;60635;-69
2023/06/15 11:25:57;;;;;;;10.60;3.60;;;;;;;41.55;21.24;99951.39;107845;1256;64120;-68
2023/06/15 11:28:31;;;;;;;9.50;3.80;;;;;;;40.93;21.97;99956.27;107848;1256;60194;-69
2023/06/15 11:31:07;;;;;;;13.20;3.70;;;;;;;40.82;21.73;99958.33;107643;1256;184924;-69
2023/06/15 11:35:10;;;;;;;12.20;4.10;;;;;;;38.83;23.88;99951.92;105550;1283;599745;-70
2023/06/15 11:37:37;;;;;;;15.30;4.10;;;;;;;39.98;22.78;99948.07;107201;1267;58809;-70
2023/06/15 11:40:06;;;;;;;9.60;3.70;;;;;;;40.31;22.80;99949.38;108132;1253;59327;-70
2023/06/15 11:42:33;;;;;;;13.30;4.20;;;;;;;40.85;22.28;99949.29;108166;1255;62674;-71
2023/06/15 11:45:01;;;;;;;10.20;3.60;;;;;;;41.18;21.80;99945.85;108040;1254;61377;-69
2023/06/15 11:47:33;;;;;;;9.20;3.90;;;;;;;40.95;22.08;99948.89;107822;1256;64344;-71
2023/06/15 11:50:07;;;;;;;9.90;3.70;;;;;;;40.40;22.53;99950.55;107905;1253;59227;-70
2023/06/15 11:52:51;;;;;;;8.40;3.70;;;;;;;40.14;22.77;99943.71;108120;1253;59107;-70
2023/06/15 11:55:20;;;;;;;9.90;4.00;;;;;;;40.13;22.89;99943.41;107937;1253;73232;-70
2023/06/15 11:57:47;;;;;;;11.30;3.70;;;;;;;40.24;22.87;99945.77;108144;1252;61272;-70